Time;durP1;ratioP1;P1;durP2;ratioP2;P2;SDS_P1;SDS_P2;PMS_P1;PMS_P2;Temp;Humidity;BMP_temperature;BMP_pressure;BME280_temperature;BME280_humidity;BME280_pressure;Samples;Min_cycle;Max_cycle;Signal;HPM_P1;HPM_P2
2023/03/22 00:01:55;;;;;;;17.85;8.15;;;9.50;99.90;;;;;;5088244;27;20046;-66
2023/03/22 00:04:21;;;;;;;19.33;7.65;;;9.40;99.90;;;;;;5103956;27;20396;-66
2023/03/22 00:06:47;;;;;;;18.70;7.65;;;9.40;99.90;;;;;;5106501;27;20486;-66
2023/03/22 00:09:13;;;;;;;16.60;7.80;;;9.40;99.90;;;;;;5100856;27;20130;-66
2023/03/22 00:11:38;;;;;;;17.88;7.40;;;9.40;99.90;;;;;;5105425;27;20074;-69
2023/03/22 00:14:05;;;;;;;19.33;7.70;;;9.30;99.90;;;;;;5101451;27;21245;-66
2023/03/22 00:16:30;;;;;;;16.52;6.75;;;9.20;99.90;;;;;;5102737;27;20065;-66
2023/03/22 00:18:56;;;;;;;17.90;6.78;;;9.20;99.90;;;;;;5106945;27;20509;-67
2023/03/22 00:21:21;;;;;;;16.15;6.60;;;9.30;99.90;;;;;;5102730;27;20100;-67
2023/03/22 00:23:47;;;;;;;13.70;6.10;;;9.30;99.90;;;;;;5121327;27;20038;-66
2023/03/22 00:26:13;;;;;;;17.08;6.53;;;9.30;99.90;;;;;;5096798;27;20181;-67
2023/03/22 00:28:40;;;;;;;15.15;6.07;;;9.30;99.90;;;;;;5119717;27;20115;-67
2023/03/22 00:31:06;;;;;;;15.73;6.03;;;9.30;99.90;;;;;;5103810;27;20194;-66
2023/03/22 00:33:32;;;;;;;17.63;5.32;;;9.30;99.90;;;;;;5107600;27;20064;-66
2023/03/22 00:36:00;;;;;;;23.05;6.25;;;9.40;99.90;;;;;;5105654;27;20493;-66
2023/03/22 00:38:35;;;;;;;17.90;5.75;;;9.30;99.90;;;;;;5105142;27;20396;-66
2023/03/22 00:41:09;;;;;;;17.00;4.90;;;9.30;99.90;;;;;;5102970;28;20134;-66
2023/03/22 00:43:36;;;;;;;16.65;5.20;;;9.30;99.90;;;;;;5102232;27;20031;-67
2023/03/22 00:46:01;;;;;;;17.60;5.00;;;9.30;99.90;;;;;;5118625;27;20039;-68
2023/03/22 00:48:27;;;;;;;18.00;5.22;;;9.30;99.90;;;;;;5104796;28;20034;-65
2023/03/22 00:50:53;;;;;;;12.00;4.60;;;9.40;99.90;;;;;;5099216;28;20042;-66
2023/03/22 00:53:18;;;;;;;16.60;4.65;;;9.40;99.90;;;;;;5108458;28;20042;-65
2023/03/22 00:55:44;;;;;;;16.00;4.90;;;9.40;99.90;;;;;;5105412;28;20413;-66
2023/03/22 00:58:09;;;;;;;11.93;4.50;;;9.40;99.90;;;;;;5097037;28;20035;-66
2023/03/22 01:00:35;;;;;;;11.85;4.35;;;9.40;99.90;;;;;;5099883;27;20829;-66
2023/03/22 01:03:03;;;;;;;13.60;3.80;;;9.30;99.90;;;;;;5099703;27;20035;-67
2023/03/22 01:05:32;;;;;;;11.88;3.88;;;9.30;99.90;;;;;;5102944;28;20039;-66
2023/03/22 01:08:07;;;;;;;18.55;4.72;;;9.40;99.90;;;;;;5104761;28;20089;-66
2023/03/22 01:10:34;;;;;;;18.33;4.05;;;9.40;99.90;;;;;;5102776;28;20035;-67
2023/03/22 01:12:59;;;;;;;10.98;3.58;;;9.40;99.90;;;;;;5105201;28;20091;-68
2023/03/22 01:15:25;;;;;;;13.70;4.20;;;9.40;99.90;;;;;;5100283;27;20055;-66
2023/03/22 01:17:51;;;;;;;9.40;3.13;;;9.40;99.90;;;;;;5096532;28;20043;-67
2023/03/22 01:20:16;;;;;;;12.65;3.35;;;9.40;99.90;;;;;;5106320;27;20490;-65
2023/03/22 01:22:42;;;;;;;12.82;3.30;;;9.40;99.90;;;;;;5106405;27;20495;-66
2023/03/22 01:25:08;;;;;;;14.60;3.30;;;9.40;99.90;;;;;;5102389;27;20047;-66
2023/03/22 01:27:34;;;;;;;9.43;2.85;;;9.40;99.90;;;;;;5104004;27;20039;-66
2023/03/22 01:29:59;;;;;;;12.30;3.20;;;9.40;99.90;;;;;;5105008;27;20031;-66
2023/03/22 01:32:25;;;;;;;11.65;3.20;;;9.40;99.90;;;;;;5110586;27;20056;-66
2023/03/22 01:34:51;;;;;;;12.02;2.95;;;9.40;99.90;;;;;;5106808;27;20477;-66
2023/03/22 01:37:17;;;;;;;11.25;3.08;;;9.40;99.90;;;;;;5110520;27;20043;-67
2023/03/22 01:39:42;;;;;;;13.23;3.15;;;9.40;99.90;;;;;;5107158;27;20051;-66
2023/03/22 01:42:15;;;;;;;11.27;2.72;;;9.40;99.90;;;;;;5108750;27;20043;-66
2023/03/22 01:45:03;;;;;;;13.05;2.67;;;9.40;99.90;;;;;;5108806;27;20085;-65
2023/03/22 01:47:30;;;;;;;14.80;3.00;;;9.40;99.90;;;;;;5107243;27;20122;-65
2023/03/22 01:49:56;;;;;;;11.95;2.97;;;9.40;99.90;;;;;;5103765;27;20397;-64
2023/03/22 01:52:21;;;;;;;11.82;2.78;;;9.50;99.90;;;;;;5109213;27;20031;-65
2023/03/22 01:54:50;;;;;;;11.82;3.20;;;9.40;99.90;;;;;;5102283;27;20095;-65
2023/03/22 01:57:17;;;;;;;13.40;2.75;;;9.40;99.90;;;;;;5108819;27;20118;-65
2023/03/22 01:59:43;;;;;;;13.38;3.03;;;9.40;99.90;;;;;;5103479;27;20454;-65
2023/03/22 02:02:17;;;;;;;9.07;2.92;;;9.30;99.90;;;;;;5109483;27;20041;-65
2023/03/22 02:04:44;;;;;;;9.75;3.00;;;9.30;99.90;;;;;;5104728;27;20054;-65
2023/03/22 02:07:14;;;;;;;11.23;3.15;;;9.30;99.90;;;;;;5105393;27;20042;-66
2023/03/22 02:09:41;;;;;;;10.95;3.22;;;9.30;99.90;;;;;;5106230;27;20043;-66
2023/03/22 02:12:28;;;;;;;10.50;3.40;;;9.30;99.90;;;;;;5107298;27;20031;-66
2023/03/22 02:15:02;;;;;;;10.82;3.42;;;9.30;99.90;;;;;;5104367;27;20118;-65
2023/03/22 02:18:05;;;;;;;10.23;3.28;;;9.40;99.90;;;;;;5102907;27;21062;-66
2023/03/22 02:20:57;;;;;;;9.30;2.85;;;9.40;99.90;;;;;;5102437;27;20070;-66
2023/03/22 02:23:28;;;;;;;12.07;3.35;;;9.30;99.90;;;;;;5106157;27;20039;-65
2023/03/22 02:26:14;;;;;;;11.07;3.60;;;9.30;99.90;;;;;;5104013;27;20489;-64
2023/03/22 02:29:07;;;;;;;10.70;3.63;;;9.30;99.90;;;;;;5106988;27;20035;-65
2023/03/22 02:31:57;;;;;;;13.27;3.42;;;9.30;99.90;;;;;;5106782;27;20035;-65
2023/03/22 02:34:57;;;;;;;12.65;4.13;;;9.20;99.90;;;;;;5107743;27;20392;-66
2023/03/22 02:37:51;;;;;;;13.25;4.57;;;9.20;99.90;;;;;;5106620;27;20072;-65
2023/03/22 02:40:31;;;;;;;17.58;4.18;;;9.20;99.90;;;;;;5087688;27;20095;-66
2023/03/22 02:43:14;;;;;;;12.88;4.43;;;9.20;99.90;;;;;;5106027;27;20058;-65
2023/03/22 02:46:01;;;;;;;13.18;4.10;;;9.20;99.90;;;;;;5105972;27;20035;-65
2023/03/22 02:48:40;;;;;;;10.43;4.05;;;9.10;99.90;;;;;;5102204;27;20340;-65
2023/03/22 02:51:17;;;;;;;10.65;3.90;;;9.10;99.90;;;;;;5106171;27;20031;-64
2023/03/22 02:54:08;;;;;;;13.27;4.50;;;9.10;99.90;;;;;;5098939;27;20040;-65
2023/03/22 02:56:45;;;;;;;10.15;3.95;;;9.10;99.90;;;;;;5104278;27;20038;-66
2023/03/22 02:59:12;;;;;;;11.90;4.07;;;9.10;99.90;;;;;;5108266;27;20282;-65
2023/03/22 03:01:42;;;;;;;14.57;4.25;;;9.10;99.90;;;;;;5102359;27;20341;-65
2023/03/22 03:04:15;;;;;;;16.73;4.47;;;9.10;99.90;;;;;;5107281;27;20043;-65
2023/03/22 03:06:47;;;;;;;13.88;4.53;;;9.10;99.90;;;;;;5088510;27;20368;-65
2023/03/22 03:09:16;;;;;;;12.48;4.18;;;9.10;99.90;;;;;;5091166;27;20394;-65
2023/03/22 03:11:45;;;;;;;15.40;4.22;;;9.10;99.90;;;;;;5105452;27;20035;-65
2023/03/22 03:14:30;;;;;;;14.00;4.18;;;9.00;99.90;;;;;;5109960;27;20035;-65
2023/03/22 03:16:59;;;;;;;18.42;4.80;;;9.00;99.90;;;;;;5112316;27;20031;-65
2023/03/22 03:19:53;;;;;;;11.82;4.10;;;9.00;99.90;;;;;;5108098;27;20118;-65
2023/03/22 03:22:38;;;;;;;15.88;4.38;;;9.00;99.90;;;;;;5106716;27;20481;-65
2023/03/22 03:25:13;;;;;;;14.65;4.10;;;9.00;99.90;;;;;;5104238;27;20043;-65
2023/03/22 03:28:01;;;;;;;13.00;3.75;;;9.00;99.90;;;;;;5108451;27;20039;-65
2023/03/22 03:30:33;;;;;;;13.00;3.88;;;9.00;99.90;;;;;;5107320;27;20035;-65
2023/03/22 03:33:19;;;;;;;14.25;4.15;;;9.00;99.90;;;;;;5106650;27;20042;-66
2023/03/22 03:36:02;;;;;;;12.10;3.55;;;9.00;99.90;;;;;;5105945;27;20397;-65
2023/03/22 03:38:32;;;;;;;12.93;3.60;;;9.00;99.90;;;;;;5104002;27;20062;-66
2023/03/22 03:41:02;;;;;;;11.15;3.40;;;9.00;99.90;;;;;;5104958;27;20074;-65
2023/03/22 03:43:27;;;;;;;13.30;3.63;;;9.00;99.90;;;;;;5124852;27;20312;-65
2023/03/22 03:45:54;;;;;;;8.60;3.38;;;9.00;99.90;;;;;;5105351;27;20040;-66
2023/03/22 03:48:28;;;;;;;14.45;4.00;;;9.00;99.90;;;;;;5106519;27;20156;-65
2023/03/22 03:50:56;;;;;;;13.10;3.80;;;9.10;99.90;;;;;;5102787;27;20505;-65
2023/03/22 03:53:21;;;;;;;12.02;4.28;;;9.10;99.90;;;;;;5108197;27;20039;-65
2023/03/22 03:55:47;;;;;;;14.55;4.80;;;9.10;99.90;;;;;;5103412;27;20083;-65
2023/03/22 03:58:14;;;;;;;13.20;4.32;;;9.10;99.90;;;;;;5106693;27;20118;-65
2023/03/22 04:00:41;;;;;;;16.30;4.55;;;9.10;99.90;;;;;;5100171;27;20039;-65
2023/03/22 04:03:06;;;;;;;15.77;5.63;;;9.00;99.90;;;;;;5108536;27;20075;-65
2023/03/22 04:05:32;;;;;;;16.33;5.40;;;9.10;99.90;;;;;;5108222;27;20195;-65
2023/03/22 04:07:57;;;;;;;17.70;5.60;;;9.10;99.90;;;;;;5106196;27;20062;-65
2023/03/22 04:10:23;;;;;;;15.57;5.70;;;9.10;99.90;;;;;;5103460;27;20047;-65
2023/03/22 04:12:48;;;;;;;15.15;6.20;;;9.10;99.90;;;;;;5103989;27;20358;-66
2023/03/22 04:15:14;;;;;;;14.82;6.05;;;9.10;99.90;;;;;;5101159;27;20466;-65
2023/03/22 04:17:40;;;;;;;13.80;6.75;;;9.10;99.90;;;;;;5102907;27;20039;-65
2023/03/22 04:20:09;;;;;;;16.98;7.47;;;9.00;99.90;;;;;;5105365;27;20043;-65
2023/03/22 04:22:37;;;;;;;20.05;7.43;;;9.00;99.90;;;;;;5101967;27;20084;-66
2023/03/22 04:25:12;;;;;;;19.48;7.93;;;9.10;99.90;;;;;;5104651;27;20413;-65
2023/03/22 04:27:38;;;;;;;20.65;8.23;;;9.10;99.90;;;;;;5087227;27;20418;-65
2023/03/22 04:30:05;;;;;;;20.42;8.38;;;9.10;99.90;;;;;;5106215;27;20039;-65
2023/03/22 04:32:31;;;;;;;19.83;8.80;;;9.10;99.90;;;;;;5101561;27;20042;-65
2023/03/22 04:34:57;;;;;;;21.52;9.25;;;9.10;99.90;;;;;;5105272;27;20039;-65
2023/03/22 04:37:25;;;;;;;20.20;8.95;;;9.10;99.90;;;;;;5103673;28;20615;-65
2023/03/22 04:39:51;;;;;;;21.88;10.10;;;9.20;99.90;;;;;;5122113;27;20035;-65
2023/03/22 04:42:17;;;;;;;19.05;10.30;;;9.10;99.90;;;;;;5107157;28;20027;-65
2023/03/22 04:44:43;;;;;;;20.67;10.80;;;9.20;99.90;;;;;;5106147;28;20481;-65
2023/03/22 04:47:09;;;;;;;24.23;10.85;;;9.20;99.90;;;;;;5103413;28;20036;-65
2023/03/22 04:49:34;;;;;;;27.20;11.60;;;9.10;99.90;;;;;;5100252;27;20538;-64
2023/03/22 04:52:00;;;;;;;24.02;11.52;;;9.10;99.90;;;;;;5102747;28;20474;-65
2023/03/22 04:54:26;;;;;;;24.58;12.27;;;9.20;99.90;;;;;;5107647;27;20369;-66
2023/03/22 04:56:51;;;;;;;26.63;12.60;;;9.10;99.90;;;;;;5107386;27;20515;-65
2023/03/22 04:59:19;;;;;;;24.55;12.55;;;9.10;99.90;;;;;;5108570;27;20046;-65
2023/03/22 05:01:49;;;;;;;23.30;12.52;;;9.10;99.90;;;;;;5105808;27;20031;-66
2023/03/22 05:04:16;;;;;;;31.50;12.82;;;9.10;99.90;;;;;;5109804;27;20046;-65
2023/03/22 05:06:42;;;;;;;28.55;13.77;;;9.10;99.90;;;;;;5106696;27;20043;-65
2023/03/22 05:09:08;;;;;;;27.85;14.15;;;9.10;99.90;;;;;;5089873;27;20108;-65
2023/03/22 05:11:35;;;;;;;30.25;13.77;;;9.10;99.90;;;;;;5109181;27;20130;-66
2023/03/22 05:14:00;;;;;;;27.77;13.75;;;9.10;99.90;;;;;;5107125;27;20034;-66
2023/03/22 05:16:26;;;;;;;30.23;14.77;;;9.10;99.90;;;;;;5104146;27;20035;-65
2023/03/22 05:18:53;;;;;;;29.90;14.95;;;9.10;99.90;;;;;;5108077;27;20858;-65
2023/03/22 05:21:21;;;;;;;29.10;14.63;;;9.10;99.90;;;;;;5108285;27;20046;-65
2023/03/22 05:23:48;;;;;;;28.25;13.98;;;9.10;99.90;;;;;;5109256;27;20046;-65
2023/03/22 05:26:14;;;;;;;28.85;14.27;;;9.10;99.90;;;;;;5108526;27;20039;-66
2023/03/22 05:28:42;;;;;;;25.48;13.98;;;9.10;99.90;;;;;;5126245;27;20127;-66
2023/03/22 05:31:09;;;;;;;28.65;13.73;;;9.10;99.90;;;;;;5110603;27;20046;-65
2023/03/22 05:33:34;;;;;;;29.38;14.15;;;9.10;99.90;;;;;;5121558;27;20043;-66
2023/03/22 05:36:00;;;;;;;26.95;14.50;;;9.00;99.90;;;;;;5108915;27;20035;-65
2023/03/22 05:38:26;;;;;;;31.50;14.07;;;9.10;99.90;;;;;;5108146;27;20505;-66
2023/03/22 05:40:52;;;;;;;30.13;14.23;;;9.20;99.90;;;;;;5108058;27;20436;-65
2023/03/22 05:43:18;;;;;;;28.80;13.73;;;9.10;99.90;;;;;;5108536;27;20047;-66
2023/03/22 05:45:44;;;;;;;26.23;14.35;;;9.20;99.90;;;;;;5109626;27;20083;-65
2023/03/22 05:48:11;;;;;;;26.38;14.32;;;9.20;99.90;;;;;;5106507;27;20038;-66
2023/03/22 05:50:36;;;;;;;28.25;13.63;;;9.30;99.90;;;;;;5108477;27;20431;-65
2023/03/22 05:53:02;;;;;;;33.97;14.13;;;9.20;99.90;;;;;;5106684;27;20149;-66
2023/03/22 05:55:30;;;;;;;26.48;13.65;;;9.30;99.90;;;;;;5104361;27;20031;-65
2023/03/22 05:58:00;;;;;;;26.88;13.38;;;9.30;99.90;;;;;;5110106;27;20071;-65
2023/03/22 06:00:30;;;;;;;32.88;13.02;;;9.30;99.90;;;;;;5105826;27;20046;-66
2023/03/22 06:02:59;;;;;;;26.65;12.98;;;9.40;99.90;;;;;;5107964;27;20030;-66
2023/03/22 06:05:25;;;;;;;28.73;13.60;;;9.30;99.90;;;;;;5107591;28;20071;-66
2023/03/22 06:07:50;;;;;;;27.05;13.18;;;9.40;99.90;;;;;;5109960;27;20444;-65
2023/03/22 06:10:17;;;;;;;27.00;13.00;;;9.50;99.90;;;;;;5102042;27;20438;-66
2023/03/22 06:12:42;;;;;;;28.88;13.45;;;9.40;99.90;;;;;;5123273;27;20389;-66
2023/03/22 06:15:08;;;;;;;28.35;13.65;;;9.50;99.90;;;;;;5104699;27;20031;-65
2023/03/22 06:17:35;;;;;;;26.58;13.10;;;9.60;99.90;;;;;;5099205;27;20394;-65
2023/03/22 06:20:08;;;;;;;31.23;13.52;;;9.60;99.90;;;;;;5105133;27;20042;-65
2023/03/22 06:22:34;;;;;;;32.50;13.60;;;9.50;99.90;;;;;;5103094;27;20043;-65
2023/03/22 06:25:00;;;;;;;27.13;13.35;;;9.50;99.90;;;;;;5106072;27;20058;-66
2023/03/22 06:27:25;;;;;;;26.58;13.07;;;9.60;99.90;;;;;;5105257;27;20742;-65
2023/03/22 06:29:53;;;;;;;28.40;12.65;;;9.60;99.90;;;;;;5107853;27;20497;-66
2023/03/22 06:32:22;;;;;;;24.48;13.13;;;9.70;99.90;;;;;;5101715;27;20043;-66
2023/03/22 06:34:48;;;;;;;24.73;13.05;;;9.80;99.90;;;;;;5109061;27;20035;-65
2023/03/22 06:37:15;;;;;;;22.52;12.02;;;9.80;99.90;;;;;;5101750;27;20074;-66
2023/03/22 06:39:40;;;;;;;23.10;11.75;;;9.90;99.90;;;;;;5102703;27;20051;-65
2023/03/22 06:42:06;;;;;;;27.90;12.20;;;9.90;99.90;;;;;;5104157;27;20408;-66
2023/03/22 06:44:31;;;;;;;23.85;11.85;;;10.10;99.90;;;;;;5107272;27;20508;-66
2023/03/22 06:46:57;;;;;;;23.85;11.75;;;10.10;99.90;;;;;;5101587;27;20054;-66
2023/03/22 06:49:26;;;;;;;24.25;11.35;;;10.20;99.90;;;;;;5101703;27;20047;-65
2023/03/22 06:51:52;;;;;;;21.33;11.85;;;10.20;99.90;;;;;;5098817;27;20042;-67
2023/03/22 06:54:18;;;;;;;20.60;10.02;;;10.20;99.90;;;;;;5098401;27;20224;-66
2023/03/22 06:56:43;;;;;;;21.70;10.30;;;10.40;99.90;;;;;;5100082;27;20084;-66
2023/03/22 06:59:09;;;;;;;21.90;10.15;;;10.40;99.90;;;;;;5099469;27;20079;-66
2023/03/22 07:01:35;;;;;;;24.77;10.68;;;10.40;99.90;;;;;;5100165;27;20047;-66
2023/03/22 07:04:01;;;;;;;24.52;10.30;;;10.40;99.90;;;;;;5100899;27;20376;-66
2023/03/22 07:06:26;;;;;;;21.33;10.35;;;10.40;99.90;;;;;;5098477;27;20085;-66
2023/03/22 07:08:52;;;;;;;22.23;10.00;;;10.40;99.90;;;;;;5080492;27;20389;-66
2023/03/22 07:11:19;;;;;;;22.55;9.68;;;10.50;99.90;;;;;;5100877;27;20035;-65
2023/03/22 07:13:44;;;;;;;16.73;9.07;;;10.40;99.90;;;;;;5104054;27;20123;-66
2023/03/22 07:16:10;;;;;;;20.90;9.48;;;10.40;99.90;;;;;;5105178;27;20467;-67
2023/03/22 07:18:36;;;;;;;16.98;8.98;;;10.50;99.90;;;;;;5104977;27;20493;-66
2023/03/22 07:21:02;;;;;;;21.42;8.65;;;10.50;99.90;;;;;;5104318;27;20050;-67
2023/03/22 07:23:27;;;;;;;19.73;8.88;;;10.60;99.90;;;;;;5104161;27;20214;-67
2023/03/22 07:25:54;;;;;;;15.60;8.43;;;10.60;99.90;;;;;;5105053;27;20401;-66
2023/03/22 07:28:20;;;;;;;19.02;8.35;;;10.70;99.90;;;;;;5099360;27;20125;-67
2023/03/22 07:30:46;;;;;;;21.05;9.30;;;10.60;99.90;;;;;;5100981;27;20118;-67
2023/03/22 07:33:12;;;;;;;22.00;8.10;;;10.60;99.90;;;;;;5099516;27;20074;-67
2023/03/22 07:35:37;;;;;;;18.08;7.93;;;10.60;99.90;;;;;;5103443;27;20093;-66
2023/03/22 07:38:04;;;;;;;17.08;7.95;;;10.70;99.90;;;;;;5097722;27;20046;-67
2023/03/22 07:40:30;;;;;;;16.30;7.20;;;10.70;99.90;;;;;;5101289;27;20035;-68
2023/03/22 07:42:57;;;;;;;15.10;7.72;;;10.80;99.90;;;;;;5099135;27;20409;-66
2023/03/22 07:45:24;;;;;;;14.65;7.13;;;10.70;99.90;;;;;;5105482;27;20054;-68
2023/03/22 07:47:50;;;;;;;16.67;7.50;;;10.70;99.90;;;;;;5103594;27;20470;-68
2023/03/22 07:50:16;;;;;;;14.35;7.78;;;10.60;99.90;;;;;;5106398;27;20042;-67
2023/03/22 07:52:43;;;;;;;14.23;7.25;;;10.60;99.90;;;;;;5104587;27;20035;-67
2023/03/22 07:55:10;;;;;;;13.75;7.28;;;10.60;99.90;;;;;;5106107;27;20482;-67
2023/03/22 07:57:36;;;;;;;16.17;7.40;;;10.60;99.90;;;;;;5120368;27;20122;-68
2023/03/22 08:00:09;;;;;;;20.13;7.85;;;10.60;99.90;;;;;;5100387;27;20049;-67
2023/03/22 08:02:34;;;;;;;13.27;6.82;;;10.60;99.90;;;;;;5104607;27;20050;-67
2023/03/22 08:05:00;;;;;;;13.60;7.03;;;10.60;99.90;;;;;;5104806;27;20406;-67
2023/03/22 08:07:25;;;;;;;15.30;6.63;;;10.60;99.90;;;;;;5099136;27;20039;-67
2023/03/22 08:09:51;;;;;;;17.25;6.95;;;10.70;99.90;;;;;;5104239;27;20034;-67
2023/03/22 08:12:17;;;;;;;17.58;6.93;;;10.70;99.90;;;;;;5101712;27;20047;-68
2023/03/22 08:14:49;;;;;;;15.93;7.07;;;10.70;99.90;;;;;;5107152;27;20050;-67
2023/03/22 08:17:14;;;;;;;16.00;6.93;;;10.60;99.90;;;;;;5103289;27;20196;-68
2023/03/22 08:19:40;;;;;;;18.38;7.13;;;10.70;99.90;;;;;;5101384;27;20608;-68
2023/03/22 08:22:06;;;;;;;14.80;6.05;;;10.70;99.90;;;;;;5105544;27;20035;-67
2023/03/22 08:24:32;;;;;;;15.38;6.75;;;10.70;99.90;;;;;;5098289;27;20117;-66
2023/03/22 08:26:58;;;;;;;16.95;6.88;;;10.70;99.90;;;;;;5101676;27;20111;-67
2023/03/22 08:29:23;;;;;;;17.88;6.57;;;10.70;99.90;;;;;;5102759;27;20035;-66
2023/03/22 08:31:50;;;;;;;15.00;6.45;;;10.70;99.90;;;;;;5100528;27;20576;-66
2023/03/22 08:34:16;;;;;;;12.73;6.32;;;10.80;99.90;;;;;;5109101;27;20321;-66
2023/03/22 08:36:41;;;;;;;14.02;6.68;;;11.00;99.90;;;;;;5115181;27;20350;-66
2023/03/22 08:39:09;;;;;;;13.48;6.00;;;11.00;99.90;;;;;;5103392;27;20023;-65
2023/03/22 08:41:34;;;;;;;17.35;6.68;;;11.20;99.90;;;;;;5103550;28;20063;-67
2023/03/22 08:44:00;;;;;;;14.38;6.53;;;11.20;99.90;;;;;;5099871;28;20066;-66
2023/03/22 08:46:26;;;;;;;17.00;6.47;;;11.20;99.90;;;;;;5104713;28;20047;-66
2023/03/22 08:48:52;;;;;;;16.42;6.18;;;11.40;99.90;;;;;;5102278;28;20046;-66
2023/03/22 08:51:19;;;;;;;16.15;6.78;;;11.40;99.90;;;;;;5103282;28;20397;-66
2023/03/22 08:53:46;;;;;;;14.73;6.22;;;11.40;99.90;;;;;;5118656;27;20046;-65
2023/03/22 08:56:13;;;;;;;15.48;6.65;;;11.40;99.90;;;;;;5088446;28;20087;-68
2023/03/22 08:58:41;;;;;;;18.25;7.00;;;11.40;99.90;;;;;;5098151;28;20492;-67
2023/03/22 09:01:10;;;;;;;15.32;6.03;;;11.50;99.90;;;;;;5101125;28;20059;-67
2023/03/22 09:03:36;;;;;;;16.40;5.60;;;11.60;99.90;;;;;;5129595;27;20030;-66
2023/03/22 09:06:02;;;;;;;14.68;6.28;;;11.60;99.90;;;;;;5121932;27;20548;-68
2023/03/22 09:08:28;;;;;;;20.48;6.35;;;11.50;99.90;;;;;;5107190;28;20056;-67
2023/03/22 09:10:53;;;;;;;17.33;5.68;;;11.40;99.90;;;;;;5107423;27;20032;-64
2023/03/22 09:13:19;;;;;;;13.25;5.35;;;11.40;99.90;;;;;;5107318;28;20035;-67
2023/03/22 09:15:45;;;;;;;19.35;5.88;;;11.50;99.90;;;;;;5093739;28;20506;-67
2023/03/22 09:18:11;;;;;;;13.25;5.50;;;11.50;99.90;;;;;;5100679;27;20073;-67
2023/03/22 09:20:37;;;;;;;12.63;5.50;;;11.60;99.90;;;;;;5109367;28;20081;-66
2023/03/22 09:23:03;;;;;;;9.65;5.00;;;11.60;99.90;;;;;;5103104;28;20096;-67
2023/03/22 09:25:29;;;;;;;15.77;5.70;;;11.60;99.90;;;;;;5108115;28;20039;-66
2023/03/22 09:27:55;;;;;;;13.90;5.03;;;11.60;99.90;;;;;;5096871;27;20067;-66
2023/03/22 09:30:20;;;;;;;16.95;5.45;;;11.60;99.90;;;;;;5109341;28;20042;-67
2023/03/22 09:32:46;;;;;;;15.10;5.50;;;11.50;99.90;;;;;;5102592;27;20039;-66
2023/03/22 09:35:11;;;;;;;16.90;5.43;;;11.50;99.90;;;;;;5111320;28;20295;-68
2023/03/22 09:37:37;;;;;;;14.70;5.10;;;11.50;99.90;;;;;;5124131;28;20111;-65
2023/03/22 09:40:04;;;;;;;16.17;5.40;;;11.50;99.90;;;;;;5106450;27;20051;-66
2023/03/22 09:42:44;;;;;;;13.65;5.10;;;11.30;99.90;;;;;;5111676;27;20035;-65
2023/03/22 09:45:17;;;;;;;14.48;5.53;;;11.20;99.90;;;;;;5107104;27;20078;-67
2023/03/22 09:47:45;;;;;;;;;;;11.10;99.90;;;;;;5099035;27;20054;-71
2023/03/22 09:50:25;;;;;;;11.13;4.93;;;11.10;99.90;;;;;;5087393;27;19920;-69
2023/03/22 09:52:52;;;;;;;13.77;4.75;;;11.10;99.90;;;;;;5110142;27;20402;-66
2023/03/22 09:55:36;;;;;;;16.95;5.15;;;11.10;99.90;;;;;;5104291;27;20050;-68
2023/03/22 09:58:11;;;;;;;17.05;5.05;;;11.10;99.90;;;;;;5112126;27;20047;-67
2023/03/22 10:00:45;;;;;;;18.50;5.13;;;11.20;99.90;;;;;;5107739;27;20077;-66
2023/03/22 10:03:23;;;;;;;15.63;5.05;;;11.20;99.90;;;;;;5105210;27;20473;-67
2023/03/22 10:05:56;;;;;;;16.60;5.50;;;11.20;99.90;;;;;;5101576;28;20046;-68
2023/03/22 10:08:26;;;;;;;16.48;5.57;;;11.20;99.90;;;;;;5098476;27;20061;-68
2023/03/22 10:10:52;;;;;;;12.48;4.60;;;11.20;99.90;;;;;;5113850;27;20478;-67
2023/03/22 10:13:33;;;;;;;14.40;4.95;;;11.20;99.90;;;;;;5106049;27;20032;-66
2023/03/22 10:16:02;;;;;;;11.65;4.63;;;11.20;99.90;;;;;;5103529;27;20126;-67
2023/03/22 10:18:45;;;;;;;13.02;5.50;;;11.20;99.90;;;;;;5102581;27;20047;-65
2023/03/22 10:21:14;;;;;;;14.30;4.85;;;11.10;99.90;;;;;;5105851;27;20432;-65
2023/03/22 10:23:55;;;;;;;11.77;5.18;;;11.20;99.90;;;;;;5105315;27;20043;-66
2023/03/22 10:26:38;;;;;;;11.97;5.00;;;11.20;99.90;;;;;;5111442;27;20162;-66
2023/03/22 10:29:34;;;;;;;10.50;5.03;;;11.10;99.90;;;;;;5112207;27;20091;-65
2023/03/22 10:32:20;;;;;;;12.13;5.18;;;11.10;99.90;;;;;;5130679;27;20279;-68
2023/03/22 10:34:46;;;;;;;15.55;5.43;;;11.10;99.90;;;;;;5087656;27;20057;-69
2023/03/22 10:37:33;;;;;;;9.70;4.88;;;11.10;99.90;;;;;;5114220;27;20039;-68
2023/03/22 10:40:05;;;;;;;11.00;4.93;;;11.00;99.90;;;;;;5107424;27;20110;-66
2023/03/22 10:42:37;;;;;;;14.43;5.13;;;11.00;99.90;;;;;;5111047;27;20474;-67
2023/03/22 10:45:14;;;;;;;18.13;4.90;;;11.00;99.90;;;;;;5112974;27;20100;-67
2023/03/22 10:47:46;;;;;;;10.73;4.75;;;11.00;99.90;;;;;;5107840;27;20061;-67
2023/03/22 10:50:21;;;;;;;14.95;5.20;;;10.90;99.90;;;;;;5104481;27;20542;-67
2023/03/22 10:53:12;;;;;;;12.70;5.35;;;10.80;99.90;;;;;;5123555;27;20035;-65
2023/03/22 10:55:40;;;;;;;14.10;5.53;;;10.80;99.90;;;;;;5104477;27;20071;-66
2023/03/22 10:58:15;;;;;;;12.77;5.15;;;10.70;99.90;;;;;;5086962;27;20436;-67
2023/03/22 11:00:50;;;;;;;17.38;5.40;;;10.80;99.90;;;;;;5106789;27;20050;-65
2023/03/22 11:03:33;;;;;;;13.40;4.85;;;10.70;99.90;;;;;;5101868;27;20401;-65
2023/03/22 11:06:08;;;;;;;;;;;10.80;99.90;;;;;;5112617;27;20055;-66
2023/03/22 11:09:09;;;;;;;13.88;5.18;;;10.70;99.90;;;;;;5101759;27;19919;-65
2023/03/22 11:11:45;;;;;;;13.25;4.75;;;10.60;99.90;;;;;;5069794;27;20386;-66
2023/03/22 11:14:19;;;;;;;18.48;5.10;;;10.70;99.90;;;;;;5098156;28;20059;-67
2023/03/22 11:16:58;;;;;;;13.65;4.50;;;10.70;99.90;;;;;;5103800;27;20044;-67
2023/03/22 11:19:32;;;;;;;13.73;4.55;;;10.70;99.90;;;;;;5093728;27;20143;-65
2023/03/22 11:22:06;;;;;;;13.23;4.30;;;10.60;99.90;;;;;;5106380;27;20047;-66
2023/03/22 11:24:33;;;;;;;10.00;4.30;;;10.70;99.90;;;;;;5110394;27;20031;-67
2023/03/22 11:27:27;;;;;;;13.43;4.30;;;10.80;99.90;;;;;;5105858;27;20039;-66
2023/03/22 11:29:57;;;;;;;11.90;4.30;;;10.80;99.90;;;;;;5106282;27;20043;-66
2023/03/22 11:32:27;;;;;;;12.70;4.00;;;10.80;99.90;;;;;;5106817;27;20077;-66
2023/03/22 11:35:21;;;;;;;13.52;4.00;;;10.90;99.90;;;;;;5090037;27;20067;-65
2023/03/22 11:37:49;;;;;;;10.20;3.78;;;10.90;99.90;;;;;;5100706;27;20112;-65
2023/03/22 11:40:18;;;;;;;10.05;4.50;;;10.90;99.90;;;;;;5101501;27;20527;-67
2023/03/22 11:42:45;;;;;;;10.07;4.07;;;11.00;99.90;;;;;;5109163;27;20047;-65
2023/03/22 11:45:20;;;;;;;11.07;4.22;;;10.90;99.90;;;;;;5102816;27;20041;-67
2023/03/22 11:47:45;;;;;;;7.35;3.60;;;11.00;99.90;;;;;;5106784;27;20061;-68
2023/03/22 11:50:33;;;;;;;8.50;4.03;;;11.00;99.90;;;;;;5105952;27;20466;-66
2023/03/22 11:53:02;;;;;;;10.43;4.10;;;11.10;99.90;;;;;;5104118;27;20046;-65
2023/03/22 11:55:32;;;;;;;14.05;4.60;;;11.10;99.90;;;;;;5106870;27;20429;-66
2023/03/22 11:57:58;;;;;;;12.63;4.18;;;11.00;99.90;;;;;;5098431;27;20469;-65
2023/03/22 12:00:29;;;;;;;12.20;4.00;;;11.10;99.90;;;;;;5102549;27;20105;-67
2023/03/22 12:03:12;;;;;;;12.73;4.53;;;11.10;99.90;;;;;;5106754;27;20043;-67
2023/03/22 12:05:41;;;;;;;11.07;5.00;;;11.10;99.90;;;;;;5103270;27;20043;-65
2023/03/22 12:08:16;;;;;;;15.52;5.35;;;11.10;99.90;;;;;;5105750;27;20035;-66
2023/03/22 12:10:47;;;;;;;10.13;4.60;;;11.10;99.90;;;;;;5104263;27;20494;-66
2023/03/22 12:13:20;;;;;;;15.05;5.20;;;11.00;99.90;;;;;;5103943;27;20027;-66
2023/03/22 12:15:59;;;;;;;10.95;4.80;;;10.90;99.90;;;;;;5098874;27;20464;-65
2023/03/22 12:18:31;;;;;;;14.88;4.60;;;10.90;99.90;;;;;;5107885;27;20157;-64
2023/03/22 12:20:59;;;;;;;14.85;5.22;;;10.90;99.90;;;;;;5101134;27;20092;-65
2023/03/22 12:23:30;;;;;;;13.18;4.43;;;10.90;99.90;;;;;;5089140;27;20122;-65
2023/03/22 12:26:11;;;;;;;13.23;5.05;;;10.90;99.90;;;;;;5095220;28;20096;-65
2023/03/22 12:28:59;;;;;;;12.93;5.03;;;10.90;99.90;;;;;;5109538;27;20496;-66
2023/03/22 12:31:55;;;;;;;12.63;5.35;;;10.80;99.90;;;;;;5110116;27;20035;-65
2023/03/22 12:34:31;;;;;;;16.42;4.97;;;10.80;99.90;;;;;;5068148;27;20058;-66
2023/03/22 12:36:58;;;;;;;12.23;4.90;;;10.90;99.90;;;;;;5088915;27;20224;-66
2023/03/22 12:39:26;;;;;;;10.63;5.13;;;10.80;99.90;;;;;;5118618;27;20065;-66
2023/03/22 12:42:00;;;;;;;12.57;4.97;;;10.80;99.90;;;;;;5099500;27;20039;-66
2023/03/22 12:44:36;;;;;;;14.90;5.00;;;10.80;99.90;;;;;;5104501;27;20374;-66
2023/03/22 12:47:11;;;;;;;13.57;4.93;;;10.90;99.90;;;;;;5098539;28;20086;-65
2023/03/22 12:49:51;;;;;;;14.27;5.68;;;10.80;99.90;;;;;;5104446;28;20035;-65
2023/03/22 12:52:18;;;;;;;14.10;5.45;;;10.80;99.90;;;;;;5095388;28;20383;-65
2023/03/22 12:54:46;;;;;;;14.55;5.38;;;10.70;99.90;;;;;;5110342;28;20088;-66
2023/03/22 12:57:15;;;;;;;10.52;5.30;;;10.80;99.90;;;;;;5112610;28;20062;-65